createdAt,value
2023-04-16T00:01:12.221Z,10.65
2023-04-16T00:03:38.986Z,11.90
2023-04-16T00:06:05.702Z,12.57
2023-04-16T00:08:32.014Z,11.25
2023-04-16T00:10:58.464Z,12.73
2023-04-16T00:13:24.937Z,12.50
2023-04-16T00:15:52.256Z,12.20
2023-04-16T00:18:18.597Z,13.93
2023-04-16T00:20:45.093Z,13.93
2023-04-16T00:23:11.410Z,13.95
2023-04-16T00:25:37.753Z,14.38
2023-04-16T00:28:05.517Z,14.82
2023-04-16T00:30:31.932Z,16.20
2023-04-16T00:32:58.380Z,16.25
2023-04-16T00:35:24.725Z,17.48
2023-04-16T00:37:51.394Z,16.95
2023-04-16T00:40:17.793Z,17.10
2023-04-16T00:42:45.760Z,17.60
2023-04-16T00:45:12.177Z,18.70
2023-04-16T00:47:39.457Z,17.33
2023-04-16T00:50:06.586Z,16.70
2023-04-16T00:52:33.062Z,17.88
2023-04-16T00:54:59.577Z,18.20
2023-04-16T00:57:26.028Z,18.58
2023-04-16T00:59:52.814Z,18.23
2023-04-16T01:02:19.478Z,18.30
2023-04-16T01:04:46.001Z,18.48
2023-04-16T01:07:12.379Z,19.85
2023-04-16T01:09:38.927Z,19.92
2023-04-16T01:12:05.290Z,20.80
2023-04-16T01:14:31.683Z,19.88
2023-04-16T01:16:58.381Z,20.10
2023-04-16T01:19:24.870Z,18.17
2023-04-16T01:21:51.170Z,18.73
2023-04-16T01:24:17.569Z,19.02
2023-04-16T01:26:43.973Z,19.73
2023-04-16T01:29:10.533Z,21.08
2023-04-16T01:31:37.368Z,18.42
2023-04-16T01:34:03.816Z,18.08
2023-04-16T01:36:33.187Z,19.73
2023-04-16T01:38:59.498Z,19.73
2023-04-16T01:41:26.569Z,18.58
2023-04-16T01:43:53.002Z,19.30
2023-04-16T01:46:31.163Z,18.10
2023-04-16T01:48:58.699Z,17.88
2023-04-16T01:51:25.105Z,17.17
2023-04-16T01:53:51.565Z,20.25
2023-04-16T01:56:17.905Z,17.80
2023-04-16T01:58:44.330Z,20.48
2023-04-16T02:01:10.749Z,19.77
2023-04-16T02:03:37.825Z,18.70
2023-04-16T02:06:04.452Z,19.08
2023-04-16T02:08:32.335Z,17.75
2023-04-16T02:10:59.450Z,18.60
2023-04-16T02:13:26.064Z,19.58
2023-04-16T02:15:53.108Z,19.10
2023-04-16T02:18:19.538Z,16.90
2023-04-16T02:20:47.718Z,16.85
2023-04-16T02:23:14.212Z,16.38
2023-04-16T02:25:45.953Z,17.40
2023-04-16T02:28:15.044Z,15.50
2023-04-16T02:30:41.668Z,16.13
2023-04-16T02:33:09.698Z,15.40
2023-04-16T02:35:36.990Z,15.43
2023-04-16T02:38:04.538Z,13.82
2023-04-16T02:40:31.641Z,15.80
2023-04-16T02:42:58.428Z,14.35
2023-04-16T02:45:25.061Z,15.10
2023-04-16T02:47:51.870Z,15.50
2023-04-16T02:50:18.914Z,15.13
2023-04-16T02:52:45.225Z,13.55
2023-04-16T02:55:11.743Z,13.65
2023-04-16T02:57:38.172Z,13.77
2023-04-16T03:00:04.965Z,13.68
2023-04-16T03:02:31.473Z,12.98
2023-04-16T03:04:57.875Z,14.55
2023-04-16T03:07:24.460Z,12.88
2023-04-16T03:09:50.766Z,13.88
2023-04-16T03:12:17.068Z,12.40
2023-04-16T03:14:43.588Z,12.75
2023-04-16T03:17:09.891Z,13.05
2023-04-16T03:19:36.288Z,12.63
2023-04-16T03:22:02.726Z,12.52
2023-04-16T03:24:29.051Z,11.05
2023-04-16T03:26:57.550Z,12.40
2023-04-16T03:29:24.051Z,12.30
2023-04-16T03:31:50.358Z,12.40
2023-04-16T03:34:16.784Z,12.00
2023-04-16T03:36:43.472Z,12.05
2023-04-16T03:39:10.398Z,12.10
2023-04-16T03:41:36.947Z,10.90
2023-04-16T03:44:03.259Z,10.98
2023-04-16T03:46:30.031Z,11.57
2023-04-16T03:48:56.427Z,11.38
2023-04-16T03:51:22.842Z,10.23
2023-04-16T03:53:49.144Z,10.27
2023-04-16T03:56:15.529Z,9.63
2023-04-16T03:58:41.936Z,9.77
2023-04-16T04:01:08.608Z,10.68
2023-04-16T04:03:35.437Z,11.35
2023-04-16T04:06:06.411Z,11.13
2023-04-16T04:08:32.727Z,10.63
2023-04-16T04:10:59.112Z,11.00
2023-04-16T04:13:25.765Z,9.73
2023-04-16T04:15:52.583Z,9.65
2023-04-16T04:18:18.913Z,9.77
2023-04-16T04:20:45.230Z,9.02
2023-04-16T04:23:11.691Z,9.55
2023-04-16T04:25:38.094Z,9.00
2023-04-16T04:28:04.591Z,10.18
2023-04-16T04:30:31.134Z,9.00
2023-04-16T04:32:57.620Z,8.73
2023-04-16T04:35:23.940Z,9.70
2023-04-16T04:37:50.328Z,9.57
2023-04-16T04:40:16.796Z,10.48
2023-04-16T04:42:43.219Z,8.80
2023-04-16T04:45:10.374Z,9.38
2023-04-16T04:47:37.192Z,8.73
2023-04-16T04:50:03.881Z,8.15
2023-04-16T04:52:30.354Z,7.57
2023-04-16T04:54:56.950Z,7.00
2023-04-16T04:57:23.462Z,7.35
2023-04-16T04:59:49.809Z,6.53
2023-04-16T05:02:16.363Z,8.07
2023-04-16T05:04:42.931Z,7.22
2023-04-16T05:07:09.280Z,7.93
2023-04-16T05:09:35.578Z,8.02
2023-04-16T05:12:02.030Z,7.47
2023-04-16T05:14:28.328Z,7.95
2023-04-16T05:16:54.695Z,8.85
2023-04-16T05:19:21.115Z,8.23
2023-04-16T05:21:47.432Z,6.82
2023-04-16T05:24:15.121Z,7.40
2023-04-16T05:26:41.831Z,7.72
2023-04-16T05:29:08.457Z,8.07
2023-04-16T05:31:35.019Z,7.10
2023-04-16T05:34:01.398Z,7.88
2023-04-16T05:36:28.033Z,8.07
2023-04-16T05:38:54.751Z,8.00
2023-04-16T05:41:21.139Z,7.75
2023-04-16T05:43:47.571Z,7.05
2023-04-16T05:46:13.971Z,8.32
2023-04-16T05:48:40.321Z,8.27
2023-04-16T05:51:06.756Z,8.57
2023-04-16T05:53:33.291Z,8.38
2023-04-16T05:55:59.732Z,8.25
2023-04-16T05:58:26.223Z,8.63
2023-04-16T06:00:52.642Z,8.13
2023-04-16T06:03:18.993Z,8.52
2023-04-16T06:05:45.650Z,8.73
2023-04-16T06:08:12.132Z,8.23
2023-04-16T06:10:38.940Z,8.93
2023-04-16T06:13:05.483Z,9.40
2023-04-16T06:15:31.780Z,7.93
2023-04-16T06:18:00.677Z,8.68
2023-04-16T06:20:27.339Z,8.15
2023-04-16T06:22:53.893Z,8.35
2023-04-16T06:25:20.551Z,8.30
2023-04-16T06:27:46.861Z,9.95
2023-04-16T06:30:14.946Z,7.80
2023-04-16T06:32:42.775Z,8.30
2023-04-16T06:35:09.937Z,8.00
2023-04-16T06:37:36.243Z,8.23
2023-04-16T06:40:03.718Z,7.63
2023-04-16T06:42:30.125Z,8.52
2023-04-16T06:44:56.477Z,9.48
2023-04-16T06:47:22.927Z,8.82
2023-04-16T06:49:49.609Z,7.68
2023-04-16T06:52:16.330Z,7.88
2023-04-16T06:54:42.697Z,10.27
2023-04-16T06:57:09.063Z,8.95
2023-04-16T06:59:35.454Z,8.65
2023-04-16T07:02:02.113Z,8.45
2023-04-16T07:04:28.828Z,8.18
2023-04-16T07:06:55.206Z,9.13
2023-04-16T07:09:21.613Z,8.15
2023-04-16T07:11:48.265Z,8.13
2023-04-16T07:14:14.811Z,10.45
2023-04-16T07:16:41.152Z,7.88
2023-04-16T07:19:07.766Z,9.35
2023-04-16T07:21:34.730Z,8.60
2023-04-16T07:24:01.221Z,9.48
2023-04-16T07:26:27.601Z,7.80
2023-04-16T07:28:53.955Z,8.27
2023-04-16T07:31:20.422Z,9.55
2023-04-16T07:33:46.849Z,7.68
2023-04-16T07:36:13.353Z,9.25
2023-04-16T07:38:39.722Z,9.07
2023-04-16T07:41:06.115Z,8.63
2023-04-16T07:43:32.465Z,9.00
2023-04-16T07:45:58.860Z,9.88
2023-04-16T07:48:25.491Z,10.20
2023-04-16T07:50:52.633Z,10.15
2023-04-16T07:53:19.004Z,9.63
2023-04-16T07:55:45.351Z,9.02
2023-04-16T07:58:11.739Z,9.25
2023-04-16T08:00:38.434Z,10.60
2023-04-16T08:03:05.110Z,10.45
2023-04-16T08:05:32.059Z,10.88
2023-04-16T08:07:58.496Z,10.60
2023-04-16T08:10:25.086Z,9.75
2023-04-16T08:12:51.679Z,10.15
2023-04-16T08:15:18.061Z,9.65
2023-04-16T08:17:44.997Z,10.20
2023-04-16T08:20:15.002Z,9.02
2023-04-16T08:22:43.360Z,10.52
2023-04-16T08:25:10.074Z,9.93
2023-04-16T08:27:36.651Z,9.30
2023-04-16T08:30:04.226Z,9.57
2023-04-16T08:32:30.933Z,10.43
2023-04-16T08:34:57.915Z,10.32
2023-04-16T08:37:25.484Z,9.27
2023-04-16T08:39:51.880Z,10.23
2023-04-16T08:42:30.880Z,9.60
2023-04-16T08:45:08.053Z,9.02
2023-04-16T08:47:35.793Z,9.35
2023-04-16T08:50:03.920Z,9.88
2023-04-16T08:52:31.823Z,8.90
2023-04-16T08:55:04.775Z,9.45
2023-04-16T08:57:39.811Z,9.43
2023-04-16T09:00:07.911Z,8.95
2023-04-16T09:02:35.007Z,8.90
2023-04-16T09:05:05.212Z,10.13
2023-04-16T09:07:33.329Z,9.90
2023-04-16T09:10:00.849Z,8.32
2023-04-16T09:12:27.902Z,8.63
2023-04-16T09:14:56.402Z,10.00
2023-04-16T09:17:23.046Z,10.95
2023-04-16T09:19:49.448Z,10.20
2023-04-16T09:22:16.793Z,11.75
2023-04-16T09:24:43.225Z,10.85
2023-04-16T09:27:10.053Z,11.13
2023-04-16T09:29:41.159Z,10.57
2023-04-16T09:32:09.787Z,10.85
2023-04-16T09:34:54.223Z,11.05
2023-04-16T09:37:21.009Z,11.13
2023-04-16T09:39:59.881Z,10.60
2023-04-16T09:42:29.062Z,10.95
2023-04-16T09:44:57.844Z,11.63
2023-04-16T09:47:38.668Z,13.35
2023-04-16T09:50:05.591Z,11.50
2023-04-16T09:52:31.866Z,10.23
2023-04-16T09:55:00.061Z,12.40
2023-04-16T09:57:26.596Z,11.65
2023-04-16T09:59:54.932Z,12.68
2023-04-16T10:02:21.368Z,13.27
2023-04-16T10:04:53.072Z,13.23
2023-04-16T10:07:20.135Z,14.23
2023-04-16T10:09:48.678Z,14.27
2023-04-16T10:12:16.170Z,13.68
2023-04-16T10:14:42.699Z,12.75
2023-04-16T10:17:09.988Z,13.35
2023-04-16T10:19:36.756Z,14.52
2023-04-16T10:22:04.343Z,12.30
2023-04-16T10:24:32.663Z,11.55
2023-04-16T10:26:59.851Z,11.07
2023-04-16T10:29:28.807Z,10.68
2023-04-16T10:31:56.571Z,10.13
2023-04-16T10:34:24.831Z,11.18
2023-04-16T10:36:53.568Z,11.60
2023-04-16T10:39:28.352Z,10.52
2023-04-16T10:42:12.185Z,10.88
2023-04-16T10:44:41.891Z,9.68
2023-04-16T10:47:11.288Z,9.50
2023-04-16T10:49:37.825Z,9.45
2023-04-16T10:52:10.668Z,10.05
2023-04-16T10:54:38.114Z,8.40
2023-04-16T10:57:10.018Z,8.05
2023-04-16T10:59:37.734Z,7.93
2023-04-16T11:02:09.204Z,7.60
2023-04-16T11:04:42.384Z,7.90
2023-04-16T11:07:11.796Z,7.53
2023-04-16T11:09:44.179Z,7.75
2023-04-16T11:12:13.664Z,8.02
2023-04-16T11:14:43.075Z,8.70
2023-04-16T11:17:10.052Z,7.28
2023-04-16T11:19:36.446Z,8.98
2023-04-16T11:22:03.090Z,7.53
2023-04-16T11:24:30.753Z,8.15
2023-04-16T11:26:57.127Z,7.40
2023-04-16T11:29:23.717Z,7.05
2023-04-16T11:31:51.786Z,6.90
2023-04-16T11:34:18.732Z,7.95
2023-04-16T11:36:46.298Z,7.38
2023-04-16T11:39:13.021Z,6.75
2023-04-16T11:41:44.149Z,6.38
2023-04-16T11:44:20.994Z,6.47
2023-04-16T11:46:47.527Z,5.75
2023-04-16T11:49:14.100Z,5.13
2023-04-16T11:51:42.358Z,5.78
2023-04-16T11:54:11.835Z,5.93
2023-04-16T11:56:38.881Z,5.35
2023-04-16T11:59:34.969Z,5.95
2023-04-16T12:02:01.631Z,5.00
2023-04-16T12:04:28.204Z,6.50
2023-04-16T12:07:10.754Z,5.55
2023-04-16T12:09:40.535Z,6.88
2023-04-16T12:12:25.263Z,6.88
2023-04-16T12:14:52.206Z,6.15
2023-04-16T12:17:20.048Z,5.95
2023-04-16T12:19:57.860Z,5.53
2023-04-16T12:22:36.848Z,5.95
2023-04-16T12:25:05.767Z,5.90
2023-04-16T12:27:53.456Z,4.80
2023-04-16T12:30:22.642Z,5.13
2023-04-16T12:32:51.215Z,4.93
2023-04-16T12:35:34.018Z,4.75
2023-04-16T12:38:00.820Z,4.30
2023-04-16T12:40:27.464Z,3.90
2023-04-16T12:42:53.933Z,4.55
2023-04-16T12:45:20.400Z,5.47
2023-04-16T12:47:47.322Z,4.35
2023-04-16T12:50:13.977Z,3.67
2023-04-16T12:52:40.373Z,4.03
2023-04-16T12:55:07.008Z,3.17
2023-04-16T12:57:33.448Z,3.45
2023-04-16T12:59:59.856Z,3.75
2023-04-16T13:02:27.502Z,3.30
2023-04-16T13:04:55.051Z,3.17
2023-04-16T13:07:21.616Z,3.25
2023-04-16T13:09:48.414Z,3.22
2023-04-16T13:12:14.872Z,2.97
2023-04-16T13:14:42.421Z,2.80
2023-04-16T13:17:10.765Z,2.78
2023-04-16T13:19:37.182Z,3.17
2023-04-16T13:22:03.593Z,5.03
2023-04-16T13:24:30.651Z,8.45
2023-04-16T13:26:57.231Z,8.93
2023-04-16T13:29:23.908Z,14.88
2023-04-16T13:31:50.417Z,4.30
2023-04-16T13:34:17.136Z,9.20
2023-04-16T13:36:43.548Z,3.63
2023-04-16T13:39:10.504Z,9.05
2023-04-16T13:41:40.245Z,9.50
2023-04-16T13:44:06.599Z,3.42
2023-04-16T13:46:33.552Z,4.85
2023-04-16T13:48:59.978Z,13.23
2023-04-16T13:51:26.283Z,6.82
2023-04-16T13:53:54.045Z,4.72
2023-04-16T13:56:20.453Z,6.07
2023-04-16T13:58:46.789Z,4.75
2023-04-16T14:01:13.211Z,7.65
2023-04-16T14:03:39.593Z,5.43
2023-04-16T14:06:05.921Z,13.43
2023-04-16T14:08:32.598Z,9.70
2023-04-16T14:10:58.956Z,14.98
2023-04-16T14:13:25.629Z,10.23
2023-04-16T14:15:55.376Z,7.35
2023-04-16T14:18:21.822Z,9.40
2023-04-16T14:20:48.174Z,8.98
2023-04-16T14:23:14.612Z,7.25
2023-04-16T14:25:41.022Z,8.07
2023-04-16T14:28:07.454Z,10.02
2023-04-16T14:30:33.889Z,7.75
2023-04-16T14:33:00.352Z,8.57
2023-04-16T14:35:26.833Z,9.65
2023-04-16T14:37:53.298Z,11.02
2023-04-16T14:40:19.720Z,8.50
2023-04-16T14:42:46.021Z,8.57
2023-04-16T14:45:12.474Z,8.10
2023-04-16T14:47:39.022Z,7.35
2023-04-16T14:50:06.000Z,7.50
2023-04-16T14:52:33.092Z,8.07
2023-04-16T14:54:59.851Z,8.38
2023-04-16T14:57:26.161Z,8.57
2023-04-16T14:59:52.603Z,7.75
2023-04-16T15:02:19.472Z,9.52
2023-04-16T15:04:45.938Z,10.43
2023-04-16T15:07:12.358Z,10.43
2023-04-16T15:09:38.662Z,9.10
2023-04-16T15:12:05.160Z,9.30
2023-04-16T15:14:31.541Z,10.57
2023-04-16T15:16:58.136Z,8.85
2023-04-16T15:19:25.467Z,8.88
2023-04-16T15:21:51.833Z,9.02
2023-04-16T15:24:18.289Z,9.95
2023-04-16T15:26:44.587Z,7.45
2023-04-16T15:29:10.982Z,9.45
2023-04-16T15:31:37.458Z,9.93
2023-04-16T15:34:03.861Z,7.93
2023-04-16T15:36:30.223Z,8.60
2023-04-16T15:38:56.628Z,8.23
2023-04-16T15:41:22.961Z,8.75
2023-04-16T15:43:49.349Z,8.93
2023-04-16T15:46:15.677Z,8.07
2023-04-16T15:48:42.618Z,8.48
2023-04-16T15:51:09.614Z,8.20
2023-04-16T15:53:36.234Z,8.50
2023-04-16T15:56:03.013Z,8.18
2023-04-16T15:58:29.392Z,9.32
2023-04-16T16:00:55.824Z,8.40
2023-04-16T16:03:22.740Z,15.75
2023-04-16T16:05:49.275Z,11.40
2023-04-16T16:08:15.995Z,12.77
2023-04-16T16:10:42.595Z,17.92
2023-04-16T16:13:09.013Z,11.77
2023-04-16T16:15:35.369Z,12.20
2023-04-16T16:18:01.872Z,10.93
2023-04-16T16:20:28.217Z,14.10
2023-04-16T16:22:54.620Z,47.72
2023-04-16T16:25:21.044Z,18.77
2023-04-16T16:27:47.548Z,35.50
2023-04-16T16:30:14.005Z,31.45
2023-04-16T16:32:40.313Z,13.60
2023-04-16T16:35:08.247Z,12.50
2023-04-16T16:37:35.209Z,8.10
2023-04-16T16:40:01.776Z,7.53
2023-04-16T16:42:28.391Z,7.68
2023-04-16T16:44:56.762Z,8.85
2023-04-16T16:47:24.165Z,7.38
2023-04-16T16:49:50.806Z,7.10
2023-04-16T16:52:17.252Z,7.88
2023-04-16T16:54:43.584Z,7.05
2023-04-16T16:57:10.048Z,7.00
2023-04-16T16:59:36.401Z,7.97
2023-04-16T17:02:03.245Z,7.80
2023-04-16T17:04:29.617Z,8.02
2023-04-16T17:06:56.068Z,6.90
2023-04-16T17:09:22.450Z,8.18
2023-04-16T17:11:49.129Z,7.25
2023-04-16T17:14:15.431Z,7.93
2023-04-16T17:16:42.116Z,7.07
2023-04-16T17:19:08.736Z,6.82
2023-04-16T17:21:35.292Z,6.53
2023-04-16T17:24:01.673Z,8.13
2023-04-16T17:26:28.022Z,8.05
2023-04-16T17:28:54.450Z,6.57
2023-04-16T17:31:20.791Z,6.57
2023-04-16T17:33:47.293Z,7.00
2023-04-16T17:36:13.688Z,7.47
2023-04-16T17:38:41.254Z,7.15
2023-04-16T17:41:09.047Z,6.22
2023-04-16T17:43:35.355Z,6.75
2023-04-16T17:46:01.959Z,6.10
2023-04-16T17:48:28.457Z,7.13
2023-04-16T17:50:54.877Z,6.40
2023-04-16T17:53:21.315Z,7.47
2023-04-16T17:55:52.422Z,7.22
2023-04-16T17:58:19.863Z,7.32
2023-04-16T18:00:46.519Z,7.18
2023-04-16T18:03:13.038Z,7.65
2023-04-16T18:05:39.735Z,6.40
2023-04-16T18:08:06.040Z,6.38
2023-04-16T18:10:32.698Z,6.80
2023-04-16T18:12:59.205Z,7.25
2023-04-16T18:15:25.603Z,7.10
2023-04-16T18:17:51.988Z,6.20
2023-04-16T18:20:18.437Z,6.90
2023-04-16T18:22:45.662Z,6.55
2023-04-16T18:25:12.177Z,6.78
2023-04-16T18:27:39.362Z,6.50
2023-04-16T18:30:06.575Z,7.35
2023-04-16T18:32:33.565Z,6.32
2023-04-16T18:35:00.282Z,6.95
2023-04-16T18:37:26.569Z,6.40
2023-04-16T18:39:52.979Z,6.30
2023-04-16T18:42:19.435Z,7.07
2023-04-16T18:44:51.909Z,8.02
2023-04-16T18:47:18.343Z,7.22
2023-04-16T18:49:44.838Z,7.57
2023-04-16T18:52:11.128Z,7.18
2023-04-16T18:54:37.666Z,7.97
2023-04-16T18:57:04.756Z,8.10
2023-04-16T18:59:31.166Z,8.43
2023-04-16T19:01:57.476Z,7.05
2023-04-16T19:04:24.279Z,7.72
2023-04-16T19:06:50.885Z,6.68
2023-04-16T19:09:17.549Z,7.82
2023-04-16T19:11:43.978Z,7.10
2023-04-16T19:14:10.329Z,6.97
2023-04-16T19:16:36.845Z,9.45
2023-04-16T19:19:03.281Z,9.25
2023-04-16T19:21:29.647Z,10.60
2023-04-16T19:23:56.029Z,9.13
2023-04-16T19:26:22.535Z,10.23
2023-04-16T19:28:48.841Z,10.20
2023-04-16T19:31:15.337Z,10.13
2023-04-16T19:33:41.791Z,10.13
2023-04-16T19:36:08.226Z,9.18
2023-04-16T19:38:34.537Z,9.27
2023-04-16T19:41:00.845Z,8.48
2023-04-16T19:43:28.409Z,7.95
2023-04-16T19:45:56.322Z,8.15
2023-04-16T19:48:23.301Z,8.00
2023-04-16T19:50:49.666Z,8.35
2023-04-16T19:53:16.030Z,8.57
2023-04-16T19:55:42.878Z,7.95
2023-04-16T19:58:09.754Z,8.57
2023-04-16T20:00:37.936Z,8.40
2023-04-16T20:03:05.007Z,8.25
2023-04-16T20:05:31.537Z,8.50
2023-04-16T20:07:58.251Z,10.23
2023-04-16T20:10:24.660Z,8.85
2023-04-16T20:12:51.051Z,8.38
2023-04-16T20:15:18.499Z,8.45
2023-04-16T20:17:45.297Z,9.32
2023-04-16T20:20:11.929Z,8.73
2023-04-16T20:22:39.424Z,8.73
2023-04-16T20:25:06.319Z,8.07
2023-04-16T20:27:33.457Z,8.55
2023-04-16T20:30:00.312Z,8.57
2023-04-16T20:32:27.840Z,10.65
2023-04-16T20:34:54.643Z,9.57
2023-04-16T20:37:21.122Z,8.68
2023-04-16T20:39:47.444Z,9.55
2023-04-16T20:42:13.835Z,8.90
2023-04-16T20:44:40.594Z,9.55
2023-04-16T20:47:11.324Z,10.88
2023-04-16T20:49:37.753Z,10.27
2023-04-16T20:52:04.919Z,9.80
2023-04-16T20:54:31.392Z,9.63
2023-04-16T20:56:58.105Z,10.48
2023-04-16T20:59:24.751Z,9.73
2023-04-16T21:01:51.246Z,9.82
2023-04-16T21:04:18.384Z,11.32
2023-04-16T21:06:44.837Z,12.00
2023-04-16T21:09:12.223Z,10.40
2023-04-16T21:11:38.861Z,10.93
2023-04-16T21:14:06.102Z,10.85
2023-04-16T21:16:32.697Z,10.52
2023-04-16T21:18:59.397Z,10.77
2023-04-16T21:21:25.712Z,10.90
2023-04-16T21:23:52.110Z,10.07
2023-04-16T21:26:18.427Z,12.80
2023-04-16T21:28:44.945Z,11.00
2023-04-16T21:31:11.297Z,10.77
2023-04-16T21:33:37.708Z,11.95
2023-04-16T21:36:04.258Z,9.55
2023-04-16T21:38:30.912Z,11.20
2023-04-16T21:40:57.195Z,10.90
2023-04-16T21:43:24.140Z,11.15
2023-04-16T21:45:53.688Z,12.35
2023-04-16T21:48:23.297Z,10.18
2023-04-16T21:50:56.661Z,10.80
2023-04-16T21:53:22.958Z,11.18
2023-04-16T21:55:49.316Z,10.15
2023-04-16T21:58:15.766Z,10.90
2023-04-16T22:00:42.312Z,10.80
2023-04-16T22:03:08.964Z,11.80
2023-04-16T22:05:35.478Z,10.52
2023-04-16T22:08:10.839Z,10.55
2023-04-16T22:13:14.053Z,9.95
2023-04-16T22:15:40.356Z,11.40
2023-04-16T22:18:06.748Z,11.70
2023-04-16T22:20:33.044Z,11.88
2023-04-16T22:22:59.409Z,11.23
2023-04-16T22:25:25.794Z,11.43
2023-04-16T22:27:52.517Z,11.43
2023-04-16T22:30:19.000Z,10.95
2023-04-16T22:32:45.970Z,11.43
2023-04-16T22:35:12.560Z,12.55
2023-04-16T22:37:38.868Z,11.52
2023-04-16T22:40:06.377Z,10.95
2023-04-16T22:42:32.779Z,11.20
2023-04-16T22:44:59.068Z,11.07
2023-04-16T22:47:25.493Z,11.57
2023-04-16T22:49:52.577Z,11.70
2023-04-16T22:52:18.954Z,11.70
2023-04-16T22:54:45.275Z,11.82
2023-04-16T22:57:11.693Z,11.35
2023-04-16T22:59:38.087Z,11.48
2023-04-16T23:02:04.526Z,11.30
2023-04-16T23:04:30.937Z,11.70
2023-04-16T23:06:57.369Z,12.52
2023-04-16T23:09:24.129Z,11.93
2023-04-16T23:11:50.428Z,11.32
2023-04-16T23:14:16.959Z,13.02
2023-04-16T23:16:43.445Z,10.45
2023-04-16T23:19:09.952Z,12.07
2023-04-16T23:21:36.578Z,12.45
2023-04-16T23:24:02.951Z,11.75
2023-04-16T23:26:29.245Z,12.35
2023-04-16T23:28:55.691Z,13.00
2023-04-16T23:31:22.033Z,12.38
2023-04-16T23:33:48.622Z,12.05
2023-04-16T23:36:15.034Z,12.43
2023-04-16T23:38:41.359Z,10.88
2023-04-16T23:41:08.048Z,11.80
2023-04-16T23:43:34.369Z,12.60
2023-04-16T23:46:00.956Z,11.50
2023-04-16T23:48:28.087Z,11.75
2023-04-16T23:50:54.488Z,13.90
2023-04-16T23:53:20.788Z,13.18
2023-04-16T23:55:47.185Z,11.90
2023-04-16T23:58:13.588Z,12.48
